createdAt,value
2023-05-05T00:02:07.762Z,2.90
2023-05-05T00:07:06.656Z,3.03
2023-05-05T00:12:05.857Z,3.75
2023-05-05T00:17:05.297Z,3.55
2023-05-05T00:22:04.183Z,3.17
2023-05-05T00:27:03.476Z,3.50
2023-05-05T00:32:02.340Z,3.45
2023-05-05T00:37:01.657Z,3.30
2023-05-05T00:42:00.634Z,3.17
2023-05-05T00:46:59.394Z,3.45
2023-05-05T00:51:58.994Z,3.17
2023-05-05T00:56:57.851Z,3.70
2023-05-05T01:01:57.075Z,4.72
2023-05-05T01:07:14.801Z,3.83
2023-05-05T01:12:33.822Z,3.40
2023-05-05T01:17:42.657Z,3.55
2023-05-05T01:22:53.223Z,3.72
2023-05-05T01:28:18.361Z,3.47
2023-05-05T01:33:24.780Z,3.65
2023-05-05T01:38:32.410Z,3.50
2023-05-05T01:43:35.754Z,4.43
2023-05-05T01:48:35.063Z,4.10
2023-05-05T01:53:35.347Z,3.95
2023-05-05T01:58:35.615Z,4.20
2023-05-05T02:03:37.767Z,4.15
2023-05-05T02:08:38.179Z,4.25
2023-05-05T02:13:39.484Z,3.67
2023-05-05T02:18:38.921Z,4.15
2023-05-05T02:23:38.623Z,4.03
2023-05-05T02:28:48.834Z,3.75
2023-05-05T02:33:49.585Z,4.20
2023-05-05T02:38:53.466Z,4.53
2023-05-05T02:43:55.252Z,5.15
2023-05-05T02:48:54.844Z,4.50
2023-05-05T02:53:53.745Z,4.75
2023-05-05T02:58:57.072Z,4.63
2023-05-05T03:04:11.600Z,3.85
2023-05-05T03:09:25.793Z,4.45
2023-05-05T03:14:33.255Z,4.45
2023-05-05T03:19:34.592Z,4.32
2023-05-05T03:24:33.556Z,4.05
2023-05-05T03:29:37.253Z,4.43
2023-05-05T03:34:40.018Z,4.65
2023-05-05T03:39:38.797Z,3.88
2023-05-05T03:44:39.092Z,4.45
2023-05-05T03:49:38.424Z,4.38
2023-05-05T03:54:37.651Z,4.18
2023-05-05T03:59:36.497Z,4.32
2023-05-05T04:04:35.786Z,4.40
2023-05-05T04:09:35.108Z,4.55
2023-05-05T04:14:34.125Z,4.13
2023-05-05T04:19:33.840Z,4.30
2023-05-05T04:24:34.690Z,3.67
2023-05-05T04:29:33.922Z,3.67
2023-05-05T04:34:33.297Z,4.35
2023-05-05T04:39:32.768Z,4.30
2023-05-05T04:44:32.213Z,3.70
2023-05-05T04:49:31.634Z,4.22
2023-05-05T04:54:30.704Z,4.20
2023-05-05T04:59:30.064Z,4.38
2023-05-05T05:04:29.267Z,4.53
2023-05-05T05:09:28.252Z,4.53
2023-05-05T05:14:28.216Z,4.75
2023-05-05T05:19:27.255Z,4.40
2023-05-05T05:24:26.320Z,4.65
2023-05-05T05:29:27.147Z,4.10
2023-05-05T05:34:26.917Z,4.45
2023-05-05T05:39:26.695Z,5.20
2023-05-05T05:44:25.938Z,4.97
2023-05-05T05:49:24.698Z,5.07
2023-05-05T05:54:24.026Z,4.30
2023-05-05T05:59:23.079Z,4.15
2023-05-05T06:04:22.105Z,4.38
2023-05-05T06:09:21.023Z,4.25
2023-05-05T06:14:20.235Z,4.35
2023-05-05T06:19:20.110Z,4.05
2023-05-05T06:24:19.009Z,3.50
2023-05-05T06:29:18.421Z,3.60
2023-05-05T06:34:18.354Z,3.85
2023-05-05T06:39:17.107Z,3.80
2023-05-05T06:44:16.134Z,3.40
2023-05-05T06:49:14.995Z,3.50
2023-05-05T06:54:13.925Z,3.50
2023-05-05T06:59:12.653Z,3.92
2023-05-05T07:04:11.822Z,3.63
2023-05-05T07:09:10.806Z,3.25
2023-05-05T07:14:09.555Z,3.95
2023-05-05T07:19:08.586Z,3.72
2023-05-05T07:24:07.486Z,3.58
2023-05-05T07:29:07.186Z,3.28
2023-05-05T07:34:06.277Z,3.30
2023-05-05T07:39:07.598Z,3.13
2023-05-05T07:44:06.441Z,3.38
2023-05-05T07:49:05.220Z,3.20
2023-05-05T07:54:04.466Z,3.08
2023-05-05T07:59:03.661Z,3.25
2023-05-05T08:04:02.409Z,3.25
2023-05-05T08:09:01.918Z,3.53
2023-05-05T08:14:00.979Z,3.53
2023-05-05T08:18:59.848Z,3.63
2023-05-05T08:23:58.712Z,3.13
2023-05-05T08:29:00.799Z,2.80
2023-05-05T08:33:59.624Z,3.17
2023-05-05T08:38:58.653Z,3.60
2023-05-05T08:43:57.478Z,3.08
2023-05-05T08:48:57.746Z,3.15
2023-05-05T08:54:06.572Z,2.83
2023-05-05T08:59:05.573Z,3.08
2023-05-05T09:04:05.157Z,2.90
2023-05-05T09:09:04.162Z,3.08
2023-05-05T09:14:03.030Z,2.88
2023-05-05T09:19:03.515Z,3.03
2023-05-05T09:24:11.204Z,2.72
2023-05-05T09:29:10.193Z,2.72
2023-05-05T09:34:16.606Z,2.72
2023-05-05T09:39:20.212Z,2.90
2023-05-05T09:44:34.681Z,2.75
2023-05-05T09:49:33.760Z,4.22
2023-05-05T09:54:34.744Z,3.03
2023-05-05T09:59:33.676Z,2.78
2023-05-05T10:04:32.594Z,2.60
2023-05-05T10:09:32.879Z,2.65
2023-05-05T10:14:34.112Z,2.10
2023-05-05T10:19:35.898Z,2.17
2023-05-05T10:24:40.078Z,2.67
2023-05-05T10:29:40.659Z,2.00
2023-05-05T10:34:53.447Z,2.40
2023-05-05T10:39:53.392Z,2.22
2023-05-05T10:44:52.327Z,2.45
2023-05-05T10:50:04.210Z,2.45
2023-05-05T10:55:13.163Z,2.50
2023-05-05T11:00:41.288Z,2.60
2023-05-05T11:06:06.225Z,2.40
2023-05-05T11:11:06.100Z,2.63
2023-05-05T11:16:05.671Z,2.20
2023-05-05T11:21:15.488Z,2.00
2023-05-05T11:26:15.643Z,2.42
2023-05-05T11:31:18.916Z,2.28
2023-05-05T11:36:19.981Z,2.10
2023-05-05T11:41:40.612Z,2.30
2023-05-05T11:46:41.071Z,2.40
2023-05-05T11:51:40.130Z,2.35
2023-05-05T11:56:50.568Z,2.10
2023-05-05T12:01:49.284Z,2.15
2023-05-05T12:06:49.246Z,2.38
2023-05-05T12:12:00.927Z,1.90
2023-05-05T12:17:09.720Z,2.42
2023-05-05T12:22:08.577Z,2.15
2023-05-05T12:27:11.794Z,1.90
2023-05-05T12:32:23.588Z,2.17
2023-05-05T12:37:26.345Z,2.17
2023-05-05T12:42:25.380Z,2.30
2023-05-05T12:47:32.533Z,2.20
2023-05-05T12:52:44.939Z,2.33
2023-05-05T12:58:04.690Z,2.03
2023-05-05T13:03:04.940Z,2.08
2023-05-05T13:08:04.264Z,2.05
2023-05-05T13:13:04.932Z,2.00
2023-05-05T13:18:03.947Z,2.38
2023-05-05T13:23:02.681Z,2.05
2023-05-05T13:28:01.461Z,2.22
2023-05-05T13:33:00.283Z,1.92
2023-05-05T13:37:59.141Z,2.00
2023-05-05T13:42:58.270Z,2.15
2023-05-05T13:47:57.295Z,2.08
2023-05-05T13:52:56.410Z,2.42
2023-05-05T13:57:55.287Z,2.42
2023-05-05T14:02:54.308Z,2.33
2023-05-05T14:07:54.427Z,2.17
2023-05-05T14:12:56.646Z,2.25
2023-05-05T14:17:56.177Z,2.63
2023-05-05T14:22:55.273Z,2.60
2023-05-05T14:27:55.792Z,2.28
2023-05-05T14:32:54.598Z,2.22
2023-05-05T14:37:53.415Z,2.13
2023-05-05T14:42:52.283Z,2.35
2023-05-05T14:47:51.169Z,2.28
2023-05-05T14:52:49.978Z,2.58
2023-05-05T14:57:48.917Z,2.10
2023-05-05T15:02:48.420Z,2.10
2023-05-05T15:07:47.787Z,2.08
2023-05-05T15:12:46.773Z,2.35
2023-05-05T15:17:45.847Z,2.33
2023-05-05T15:22:44.760Z,1.88
2023-05-05T15:27:43.621Z,1.90
2023-05-05T15:32:42.596Z,2.75
2023-05-05T15:37:42.605Z,2.28
2023-05-05T15:42:41.582Z,2.42
2023-05-05T15:47:40.842Z,2.00
2023-05-05T15:52:39.931Z,1.55
2023-05-05T15:57:41.721Z,2.30
2023-05-05T16:02:40.710Z,2.22
2023-05-05T16:07:39.736Z,2.00
2023-05-05T16:12:38.598Z,2.65
2023-05-05T16:17:37.813Z,2.10
2023-05-05T16:22:37.055Z,2.40
2023-05-05T16:27:36.003Z,2.20
2023-05-05T16:32:34.956Z,2.05
2023-05-05T16:37:33.811Z,2.45
2023-05-05T16:42:32.513Z,2.20
2023-05-05T16:47:31.366Z,2.38
2023-05-05T16:52:30.341Z,2.22
2023-05-05T16:57:29.491Z,2.30
2023-05-05T17:02:28.590Z,2.25
2023-05-05T17:07:27.796Z,2.40
2023-05-05T17:12:26.588Z,2.47
2023-05-05T17:17:25.464Z,2.63
2023-05-05T17:22:24.382Z,2.67
2023-05-05T17:27:23.205Z,3.03
2023-05-05T17:32:22.340Z,3.00
2023-05-05T17:37:21.236Z,2.88
2023-05-05T17:42:22.996Z,2.75
2023-05-05T17:47:22.572Z,2.60
2023-05-05T17:52:22.688Z,3.03
2023-05-05T17:57:21.514Z,3.25
2023-05-05T18:02:20.500Z,3.20
2023-05-05T18:07:19.654Z,3.10
2023-05-05T18:12:18.434Z,2.92
2023-05-05T18:17:17.162Z,3.13
2023-05-05T18:22:16.039Z,3.10
2023-05-05T18:27:14.935Z,3.60
2023-05-05T18:32:13.771Z,3.10
2023-05-05T18:37:12.683Z,3.88
2023-05-05T18:42:13.004Z,3.42
2023-05-05T18:47:12.034Z,3.00
2023-05-05T18:52:10.888Z,3.40
2023-05-05T18:57:09.979Z,3.35
2023-05-05T19:02:09.073Z,3.63
2023-05-05T19:07:07.886Z,3.75
2023-05-05T19:12:06.865Z,3.80
2023-05-05T19:17:05.938Z,4.07
2023-05-05T19:22:04.852Z,4.07
2023-05-05T19:27:04.098Z,4.35
2023-05-05T19:32:02.921Z,3.95
2023-05-05T19:37:01.878Z,3.95
2023-05-05T19:42:01.133Z,3.63
2023-05-05T19:47:00.126Z,3.83
2023-05-05T19:51:59.100Z,3.80
2023-05-05T19:56:57.904Z,3.95
2023-05-05T20:01:56.940Z,4.20
2023-05-05T20:06:55.721Z,3.58
2023-05-05T20:11:55.520Z,4.15
2023-05-05T20:16:54.560Z,4.15
2023-05-05T20:21:53.402Z,4.70
2023-05-05T20:26:52.191Z,3.95
2023-05-05T20:31:50.952Z,3.97
2023-05-05T20:36:49.788Z,3.50
2023-05-05T20:41:49.045Z,3.60
2023-05-05T20:46:47.837Z,3.95
2023-05-05T20:51:46.759Z,4.28
2023-05-05T20:56:45.592Z,4.05
2023-05-05T21:01:44.418Z,3.55
2023-05-05T21:06:43.195Z,4.45
2023-05-05T21:11:43.628Z,3.92
2023-05-05T21:16:42.879Z,3.90
2023-05-05T21:21:41.771Z,3.45
2023-05-05T21:26:44.344Z,4.25
2023-05-05T21:36:41.803Z,3.63
2023-05-05T21:41:40.657Z,4.22
2023-05-05T21:46:39.640Z,3.78
2023-05-05T21:51:38.464Z,4.10
2023-05-05T21:56:37.526Z,4.03
2023-05-05T22:01:36.963Z,4.53
2023-05-05T22:06:35.765Z,4.70
2023-05-05T22:11:34.596Z,4.90
2023-05-05T22:16:33.416Z,4.10
2023-05-05T22:21:32.398Z,3.50
2023-05-05T22:26:31.178Z,3.72
2023-05-05T22:31:30.829Z,3.95
2023-05-05T22:36:29.738Z,3.88
2023-05-05T22:41:28.475Z,4.05
2023-05-05T22:46:27.306Z,4.03
2023-05-05T22:51:26.141Z,3.97
2023-05-05T22:56:24.993Z,4.05
2023-05-05T23:01:24.054Z,3.97
2023-05-05T23:06:22.856Z,4.30
2023-05-05T23:11:21.722Z,5.00
2023-05-05T23:16:20.711Z,5.30
2023-05-05T23:21:19.682Z,5.95
2023-05-05T23:26:18.422Z,5.03
2023-05-05T23:31:17.388Z,6.20
2023-05-05T23:36:16.281Z,5.60
2023-05-05T23:41:15.060Z,5.68
2023-05-05T23:46:13.991Z,5.28
2023-05-05T23:51:12.834Z,5.60
2023-05-05T23:56:11.998Z,5.72
